sensor_id;sensor_type;location;lat;lon;timestamp;pressure;altitude;pressure_sealevel;temperature
43802;BMP280;29429;51.074;13.764;2022-08-19T00:01:58;99179.97;;;23.38
43802;BMP280;29429;51.074;13.764;2022-08-19T00:04:31;99182.41;;;23.40
43802;BMP280;29429;51.074;13.764;2022-08-19T00:06:59;99188.19;;;23.33
43802;BMP280;29429;51.074;13.764;2022-08-19T00:09:27;99195.25;;;23.34
43802;BMP280;29429;51.074;13.764;2022-08-19T00:11:56;99181.94;;;23.33
43802;BMP280;29429;51.074;13.764;2022-08-19T00:14:25;99182.47;;;23.35
43802;BMP280;29429;51.074;13.764;2022-08-19T00:16:53;99185.19;;;23.35
43802;BMP280;29429;51.074;13.764;2022-08-19T00:19:23;99174.91;;;23.32
43802;BMP280;29429;51.074;13.764;2022-08-19T00:21:51;99186.38;;;23.29
43802;BMP280;29429;51.074;13.764;2022-08-19T00:24:18;99199.69;;;23.30
43802;BMP280;29429;51.074;13.764;2022-08-19T00:26:45;99199.69;;;23.30
43802;BMP280;29429;51.074;13.764;2022-08-19T00:29:16;99213.50;;;23.34
43802;BMP280;29429;51.074;13.764;2022-08-19T00:31:45;99216.81;;;23.31
43802;BMP280;29429;51.074;13.764;2022-08-19T00:34:14;99216.53;;;23.32
43802;BMP280;29429;51.074;13.764;2022-08-19T00:36:42;99226.13;;;23.30
43802;BMP280;29429;51.074;13.764;2022-08-19T00:39:10;99226.13;;;23.30
43802;BMP280;29429;51.074;13.764;2022-08-19T00:41:37;99227.22;;;23.29
43802;BMP280;29429;51.074;13.764;2022-08-19T00:46:47;99236.91;;;23.35
43802;BMP280;29429;51.074;13.764;2022-08-19T00:49:46;99225.09;;;23.26
43802;BMP280;29429;51.074;13.764;2022-08-19T00:52:27;99214.41;;;23.16
43802;BMP280;29429;51.074;13.764;2022-08-19T00:54:57;99210.75;;;23.07
43802;BMP280;29429;51.074;13.764;2022-08-19T00:57:34;99214.38;;;23.02
43802;BMP280;29429;51.074;13.764;2022-08-19T01:00:06;99224.75;;;23.00
43802;BMP280;29429;51.074;13.764;2022-08-19T01:02:33;99224.53;;;22.96
43802;BMP280;29429;51.074;13.764;2022-08-19T01:05:05;99210.22;;;22.91
43802;BMP280;29429;51.074;13.764;2022-08-19T01:07:34;99204.56;;;22.87
43802;BMP280;29429;51.074;13.764;2022-08-19T01:10:08;99211.09;;;22.86
43802;BMP280;29429;51.074;13.764;2022-08-19T01:12:36;99216.56;;;22.86
43802;BMP280;29429;51.074;13.764;2022-08-19T01:15:08;99213.84;;;22.86
43802;BMP280;29429;51.074;13.764;2022-08-19T01:17:39;99217.16;;;22.83
43802;BMP280;29429;51.074;13.764;2022-08-19T01:20:14;99217.38;;;22.87
43802;BMP280;29429;51.074;13.764;2022-08-19T01:25:24;99224.63;;;22.91
43802;BMP280;29429;51.074;13.764;2022-08-19T01:27:54;99239.53;;;22.94
43802;BMP280;29429;51.074;13.764;2022-08-19T01:30:32;99238.13;;;22.96
43802;BMP280;29429;51.074;13.764;2022-08-19T01:32:59;99247.91;;;22.97
43802;BMP280;29429;51.074;13.764;2022-08-19T01:35:29;99235.91;;;22.98
43802;BMP280;29429;51.074;13.764;2022-08-19T01:38:03;99237.53;;;22.99
43802;BMP280;29429;51.074;13.764;2022-08-19T01:40:38;99235.31;;;23.01
43802;BMP280;29429;51.074;13.764;2022-08-19T01:43:06;99226.06;;;23.02
43802;BMP280;29429;51.074;13.764;2022-08-19T01:45:35;99227.66;;;23.03
43802;BMP280;29429;51.074;13.764;2022-08-19T01:48:03;99217.47;;;22.95
43802;BMP280;29429;51.074;13.764;2022-08-19T01:50:33;99221.59;;;22.93
43802;BMP280;29429;51.074;13.764;2022-08-19T01:53:04;99226.84;;;22.89
43802;BMP280;29429;51.074;13.764;2022-08-19T01:55:38;99222.91;;;22.95
43802;BMP280;29429;51.074;13.764;2022-08-19T01:58:15;99239.22;;;22.95
43802;BMP280;29429;51.074;13.764;2022-08-19T02:00:43;99240.56;;;22.98
43802;BMP280;29429;51.074;13.764;2022-08-19T02:03:11;99238.72;;;22.93
43802;BMP280;29429;51.074;13.764;2022-08-19T02:05:40;99233.28;;;22.93
43802;BMP280;29429;51.074;13.764;2022-08-19T02:08:08;99230.56;;;22.93
43802;BMP280;29429;51.074;13.764;2022-08-19T02:10:41;99226.25;;;22.92
43802;BMP280;29429;51.074;13.764;2022-08-19T02:13:10;99207.88;;;22.84
43802;BMP280;29429;51.074;13.764;2022-08-19T02:15:38;99189.53;;;22.76
43802;BMP280;29429;51.074;13.764;2022-08-19T02:18:05;99187.31;;;22.78
43802;BMP280;29429;51.074;13.764;2022-08-19T02:20:32;99203.63;;;22.78
43802;BMP280;29429;51.074;13.764;2022-08-19T02:22:59;99213.47;;;22.74
43802;BMP280;29429;51.074;13.764;2022-08-19T02:25:27;99225.38;;;22.78
43802;BMP280;29429;51.074;13.764;2022-08-19T02:27:54;99235.09;;;22.84
43802;BMP280;29429;51.074;13.764;2022-08-19T02:30:22;99233.47;;;22.83
43802;BMP280;29429;51.074;13.764;2022-08-19T02:32:49;99227.44;;;22.86
43802;BMP280;29429;51.074;13.764;2022-08-19T02:35:16;99221.19;;;22.86
43802;BMP280;29429;51.074;13.764;2022-08-19T02:37:44;99229.06;;;22.87
43802;BMP280;29429;51.074;13.764;2022-08-19T02:40:31;99226.84;;;22.89
43802;BMP280;29429;51.074;13.764;2022-08-19T02:43:07;99214.75;;;22.95
43802;BMP280;29429;51.074;13.764;2022-08-19T02:45:36;99219.09;;;22.96
43802;BMP280;29429;51.074;13.764;2022-08-19T02:48:08;99219.41;;;22.95
43802;BMP280;29429;51.074;13.764;2022-08-19T02:50:50;99215.78;;;22.99
43802;BMP280;29429;51.074;13.764;2022-08-19T02:53:25;99211.34;;;23.03
43802;BMP280;29429;51.074;13.764;2022-08-19T02:55:53;99220.63;;;23.02
43802;BMP280;29429;51.074;13.764;2022-08-19T02:58:22;99230.09;;;23.05
43802;BMP280;29429;51.074;13.764;2022-08-19T03:00:54;99235.94;;;23.12
43802;BMP280;29429;51.074;13.764;2022-08-19T03:03:22;99236.25;;;23.11
43802;BMP280;29429;51.074;13.764;2022-08-19T03:05:50;99236.34;;;23.06
43802;BMP280;29429;51.074;13.764;2022-08-19T03:08:24;99236.94;;;23.02
43802;BMP280;29429;51.074;13.764;2022-08-19T03:10:52;99232.91;;;23.00
43802;BMP280;29429;51.074;13.764;2022-08-19T03:13:20;99226.06;;;23.02
43802;BMP280;29429;51.074;13.764;2022-08-19T03:15:47;99218.81;;;22.98
43802;BMP280;29429;51.074;13.764;2022-08-19T03:18:16;99218.50;;;22.99
43802;BMP280;29429;51.074;13.764;2022-08-19T03:20:52;99213.75;;;22.91
43802;BMP280;29429;51.074;13.764;2022-08-19T03:23:23;99211.38;;;22.85
43802;BMP280;29429;51.074;13.764;2022-08-19T03:25:52;99219.03;;;22.83
43802;BMP280;29429;51.074;13.764;2022-08-19T03:28:44;99222.38;;;22.80
43802;BMP280;29429;51.074;13.764;2022-08-19T03:31:26;99226.78;;;22.76
43802;BMP280;29429;51.074;13.764;2022-08-19T03:34:18;99232.00;;;22.72
43802;BMP280;29429;51.074;13.764;2022-08-19T03:36:46;99235.22;;;22.74
43802;BMP280;29429;51.074;13.764;2022-08-19T03:39:13;99242.03;;;22.77
43802;BMP280;29429;51.074;13.764;2022-08-19T03:41:44;99234.56;;;22.82
43802;BMP280;29429;51.074;13.764;2022-08-19T03:44:19;99241.31;;;22.85
43802;BMP280;29429;51.074;13.764;2022-08-19T03:46:54;99236.09;;;22.88
43802;BMP280;29429;51.074;13.764;2022-08-19T03:49:27;99237.13;;;22.92
43802;BMP280;29429;51.074;13.764;2022-08-19T03:51:58;99243.66;;;22.91
43802;BMP280;29429;51.074;13.764;2022-08-19T03:54:28;99245.97;;;22.84
43802;BMP280;29429;51.074;13.764;2022-08-19T03:56:56;99248.16;;;22.82
43802;BMP280;29429;51.074;13.764;2022-08-19T03:59:31;99247.38;;;22.82
43802;BMP280;29429;51.074;13.764;2022-08-19T04:02:04;99259.03;;;22.82
43802;BMP280;29429;51.074;13.764;2022-08-19T04:04:32;99244.34;;;22.83
43802;BMP280;29429;51.074;13.764;2022-08-19T04:06:59;99249.59;;;22.93
43802;BMP280;29429;51.074;13.764;2022-08-19T04:09:26;99241.94;;;22.95
43802;BMP280;29429;51.074;13.764;2022-08-19T04:11:56;99253.06;;;22.99
43802;BMP280;29429;51.074;13.764;2022-08-19T04:14:28;99247.53;;;23.04
43802;BMP280;29429;51.074;13.764;2022-08-19T04:16:59;99240.44;;;22.89
43802;BMP280;29429;51.074;13.764;2022-08-19T04:19:29;99238.09;;;22.83
43802;BMP280;29429;51.074;13.764;2022-08-19T04:21:57;99237.50;;;22.86
43802;BMP280;29429;51.074;13.764;2022-08-19T04:24:25;99231.78;;;22.87
43802;BMP280;29429;51.074;13.764;2022-08-19T04:26:52;99238.00;;;22.88
43802;BMP280;29429;51.074;13.764;2022-08-19T04:29:23;99239.50;;;22.80
43802;BMP280;29429;51.074;13.764;2022-08-19T04:31:54;99239.00;;;22.78
43802;BMP280;29429;51.074;13.764;2022-08-19T04:34:27;99240.91;;;22.78
43802;BMP280;29429;51.074;13.764;2022-08-19T04:36:58;99245.59;;;22.72
43802;BMP280;29429;51.074;13.764;2022-08-19T04:39:29;99241.72;;;22.78
43802;BMP280;29429;51.074;13.764;2022-08-19T04:42:17;99242.28;;;22.75
43802;BMP280;29429;51.074;13.764;2022-08-19T04:45:09;99243.69;;;22.73
43802;BMP280;29429;51.074;13.764;2022-08-19T04:47:40;99246.66;;;22.76
43802;BMP280;29429;51.074;13.764;2022-08-19T04:50:25;99249.38;;;22.76
43802;BMP280;29429;51.074;13.764;2022-08-19T04:52:52;99252.00;;;22.81
43802;BMP280;29429;51.074;13.764;2022-08-19T04:55:20;99248.97;;;22.83
43802;BMP280;29429;51.074;13.764;2022-08-19T04:57:46;99238.91;;;22.83
43802;BMP280;29429;51.074;13.764;2022-08-19T05:00:14;99240.81;;;22.83
43802;BMP280;29429;51.074;13.764;2022-08-19T05:02:41;99240.00;;;22.82
43802;BMP280;29429;51.074;13.764;2022-08-19T05:05:08;99239.50;;;22.80
43802;BMP280;29429;51.074;13.764;2022-08-19T05:07:36;99237.28;;;22.82
43802;BMP280;29429;51.074;13.764;2022-08-19T05:10:05;99234.28;;;22.84
43802;BMP280;29429;51.074;13.764;2022-08-19T05:12:33;99248.09;;;22.87
43802;BMP280;29429;51.074;13.764;2022-08-19T05:15:02;99256.16;;;22.92
43802;BMP280;29429;51.074;13.764;2022-08-19T05:17:29;99251.72;;;22.96
43802;BMP280;29429;51.074;13.764;2022-08-19T05:20:06;99259.41;;;22.94
43802;BMP280;29429;51.074;13.764;2022-08-19T05:22:51;99274.09;;;22.93
43802;BMP280;29429;51.074;13.764;2022-08-19T05:25:21;99282.75;;;22.95
43802;BMP280;29429;51.074;13.764;2022-08-19T05:27:48;99285.28;;;22.92
43802;BMP280;29429;51.074;13.764;2022-08-19T05:30:16;99285.47;;;22.95
43802;BMP280;29429;51.074;13.764;2022-08-19T05:32:44;99292.63;;;22.91
43802;BMP280;29429;51.074;13.764;2022-08-19T05:35:11;99296.44;;;22.90
43802;BMP280;29429;51.074;13.764;2022-08-19T05:37:39;99303.50;;;22.91
43802;BMP280;29429;51.074;13.764;2022-08-19T05:40:10;99302.69;;;22.91
43802;BMP280;29429;51.074;13.764;2022-08-19T05:42:37;99313.28;;;22.92
43802;BMP280;29429;51.074;13.764;2022-08-19T05:45:05;99312.69;;;22.95
43802;BMP280;29429;51.074;13.764;2022-08-19T05:47:33;99319.75;;;22.96
43802;BMP280;29429;51.074;13.764;2022-08-19T05:50:06;99322.97;;;22.98
43802;BMP280;29429;51.074;13.764;2022-08-19T05:52:33;99336.56;;;22.98
43802;BMP280;29429;51.074;13.764;2022-08-19T05:55:03;99341.09;;;22.89
43802;BMP280;29429;51.074;13.764;2022-08-19T05:57:30;99335.72;;;22.84
43802;BMP280;29429;51.074;13.764;2022-08-19T05:59:57;99338.22;;;22.81
43802;BMP280;29429;51.074;13.764;2022-08-19T06:02:28;99339.63;;;22.78
43802;BMP280;29429;51.074;13.764;2022-08-19T06:04:57;99338.00;;;22.77
43802;BMP280;29429;51.074;13.764;2022-08-19T06:07:24;99353.72;;;22.80
43802;BMP280;29429;51.074;13.764;2022-08-19T06:09:52;99361.31;;;22.83
43802;BMP280;29429;51.074;13.764;2022-08-19T06:12:31;99367.81;;;22.82
43802;BMP280;29429;51.074;13.764;2022-08-19T06:15:03;99377.31;;;22.85
43802;BMP280;29429;51.074;13.764;2022-08-19T06:17:30;99391.44;;;22.87
43802;BMP280;29429;51.074;13.764;2022-08-19T06:19:58;99390.13;;;22.84
43802;BMP280;29429;51.074;13.764;2022-08-19T06:22:27;99405.31;;;22.85
43802;BMP280;29429;51.074;13.764;2022-08-19T06:24:55;99405.88;;;22.87
43802;BMP280;29429;51.074;13.764;2022-08-19T06:27:22;99413.13;;;22.92
43802;BMP280;29429;51.074;13.764;2022-08-19T06:29:49;99409.59;;;22.91
43802;BMP280;29429;51.074;13.764;2022-08-19T06:32:17;99416.69;;;22.92
43802;BMP280;29429;51.074;13.764;2022-08-19T06:34:46;99415.63;;;22.88
43802;BMP280;29429;51.074;13.764;2022-08-19T06:37:13;99427.41;;;22.84
43802;BMP280;29429;51.074;13.764;2022-08-19T06:39:44;99434.75;;;22.83
43802;BMP280;29429;51.074;13.764;2022-08-19T06:42:12;99424.91;;;22.87
43802;BMP280;29429;51.074;13.764;2022-08-19T06:44:46;99423.50;;;22.90
43802;BMP280;29429;51.074;13.764;2022-08-19T06:47:20;99422.13;;;22.92
43802;BMP280;29429;51.074;13.764;2022-08-19T06:49:55;99423.72;;;22.93
43802;BMP280;29429;51.074;13.764;2022-08-19T06:52:35;99430.19;;;22.97
43802;BMP280;29429;51.074;13.764;2022-08-19T06:55:05;99430.41;;;23.01
43802;BMP280;29429;51.074;13.764;2022-08-19T06:57:33;99437.81;;;22.95
43802;BMP280;29429;51.074;13.764;2022-08-19T07:00:01;99450.72;;;22.90
43802;BMP280;29429;51.074;13.764;2022-08-19T07:02:28;99452.38;;;22.86
43802;BMP280;29429;51.074;13.764;2022-08-19T07:04:55;99454.09;;;22.82
43802;BMP280;29429;51.074;13.764;2022-08-19T07:07:25;99450.81;;;22.80
43802;BMP280;29429;51.074;13.764;2022-08-19T07:09:52;99453.84;;;22.78
43802;BMP280;29429;51.074;13.764;2022-08-19T07:12:30;99439.25;;;22.69
43802;BMP280;29429;51.074;13.764;2022-08-19T07:15:06;99428.50;;;22.59
43802;BMP280;29429;51.074;13.764;2022-08-19T07:17:35;99430.78;;;22.52
43802;BMP280;29429;51.074;13.764;2022-08-19T07:20:06;99430.47;;;22.54
43802;BMP280;29429;51.074;13.764;2022-08-19T07:22:37;99435.63;;;22.55
43802;BMP280;29429;51.074;13.764;2022-08-19T07:25:08;99443.78;;;22.55
43802;BMP280;29429;51.074;13.764;2022-08-19T07:27:35;99453.03;;;22.54
43802;BMP280;29429;51.074;13.764;2022-08-19T07:30:07;99458.13;;;22.61
43802;BMP280;29429;51.074;13.764;2022-08-19T07:32:39;99459.53;;;22.58
43802;BMP280;29429;51.074;13.764;2022-08-19T07:35:07;99454.59;;;22.60
43802;BMP280;29429;51.074;13.764;2022-08-19T07:37:36;99465.97;;;22.62
43802;BMP280;29429;51.074;13.764;2022-08-19T07:40:06;99471.97;;;22.64
43802;BMP280;29429;51.074;13.764;2022-08-19T07:42:33;99471.44;;;22.62
43802;BMP280;29429;51.074;13.764;2022-08-19T07:45:00;99479.88;;;22.61
43802;BMP280;29429;51.074;13.764;2022-08-19T07:47:28;99472.78;;;22.65
43802;BMP280;29429;51.074;13.764;2022-08-19T07:50:16;99470.81;;;22.70
43802;BMP280;29429;51.074;13.764;2022-08-19T07:52:45;99462.66;;;22.70
43802;BMP280;29429;51.074;13.764;2022-08-19T07:55:19;99459.19;;;22.65
43802;BMP280;29429;51.074;13.764;2022-08-19T07:58:07;99456.78;;;22.63
43802;BMP280;29429;51.074;13.764;2022-08-19T08:00:34;99460.00;;;22.65
43802;BMP280;29429;51.074;13.764;2022-08-19T08:03:02;99460.44;;;22.72
43802;BMP280;29429;51.074;13.764;2022-08-19T08:05:29;99465.31;;;22.75
43802;BMP280;29429;51.074;13.764;2022-08-19T08:08:14;99475.66;;;22.73
43802;BMP280;29429;51.074;13.764;2022-08-19T08:11:00;99477.94;;;22.66
43802;BMP280;29429;51.074;13.764;2022-08-19T08:13:27;99480.66;;;22.66
43802;BMP280;29429;51.074;13.764;2022-08-19T08:15:56;99483.97;;;22.63
43802;BMP280;29429;51.074;13.764;2022-08-19T08:18:24;99485.03;;;22.62
43802;BMP280;29429;51.074;13.764;2022-08-19T08:20:57;99481.75;;;22.65
43802;BMP280;29429;51.074;13.764;2022-08-19T08:23:25;99483.16;;;22.63
43802;BMP280;29429;51.074;13.764;2022-08-19T08:25:56;99487.22;;;22.60
43802;BMP280;29429;51.074;13.764;2022-08-19T08:28:26;99483.19;;;22.58
43802;BMP280;29429;51.074;13.764;2022-08-19T08:30:55;99491.09;;;22.54
43802;BMP280;29429;51.074;13.764;2022-08-19T08:33:25;99495.94;;;22.57
43802;BMP280;29429;51.074;13.764;2022-08-19T08:36:11;99500.00;;;22.60
43802;BMP280;29429;51.074;13.764;2022-08-19T08:38:38;99499.16;;;22.64
43802;BMP280;29429;51.074;13.764;2022-08-19T08:44:54;99511.84;;;22.74
43802;BMP280;29429;51.074;13.764;2022-08-19T08:47:34;99515.91;;;22.76
43802;BMP280;29429;51.074;13.764;2022-08-19T08:50:13;99514.44;;;22.84
43802;BMP280;29429;51.074;13.764;2022-08-19T08:52:51;99509.16;;;22.92
43802;BMP280;29429;51.074;13.764;2022-08-19T08:55:25;99509.31;;;23.01
43802;BMP280;29429;51.074;13.764;2022-08-19T08:58:30;99496.16;;;23.08
43802;BMP280;29429;51.074;13.764;2022-08-19T09:00:58;99498.00;;;23.13
43802;BMP280;29429;51.074;13.764;2022-08-19T09:03:28;99508.53;;;23.19
43802;BMP280;29429;51.074;13.764;2022-08-19T09:09:05;99509.75;;;23.50
43802;BMP280;29429;51.074;13.764;2022-08-19T09:11:46;99510.16;;;23.57
43802;BMP280;29429;51.074;13.764;2022-08-19T09:17:22;99513.94;;;23.61
43802;BMP280;29429;51.074;13.764;2022-08-19T09:20:22;99518.78;;;23.64
43802;BMP280;29429;51.074;13.764;2022-08-19T09:22:51;99510.25;;;23.71
43802;BMP280;29429;51.074;13.764;2022-08-19T09:25:21;99500.56;;;23.79
43802;BMP280;29429;51.074;13.764;2022-08-19T09:27:55;99487.09;;;23.87
43802;BMP280;29429;51.074;13.764;2022-08-19T09:30:33;99489.31;;;23.99
43802;BMP280;29429;51.074;13.764;2022-08-19T09:33:01;99487.84;;;24.06
43802;BMP280;29429;51.074;13.764;2022-08-19T09:35:29;99485.34;;;24.10
43802;BMP280;29429;51.074;13.764;2022-08-19T09:37:58;99476.41;;;24.04
43802;BMP280;29429;51.074;13.764;2022-08-19T09:40:27;99471.38;;;23.98
43802;BMP280;29429;51.074;13.764;2022-08-19T09:42:57;99474.81;;;24.03
43802;BMP280;29429;51.074;13.764;2022-08-19T09:45:27;99471.06;;;23.99
43802;BMP280;29429;51.074;13.764;2022-08-19T09:47:53;99471.97;;;23.95
43802;BMP280;29429;51.074;13.764;2022-08-19T09:50:23;99464.16;;;23.88
43802;BMP280;29429;51.074;13.764;2022-08-19T09:52:51;99468.84;;;23.88
43802;BMP280;29429;51.074;13.764;2022-08-19T09:55:25;99463.47;;;23.96
43802;BMP280;29429;51.074;13.764;2022-08-19T09:58:00;99463.69;;;24.00
43802;BMP280;29429;51.074;13.764;2022-08-19T10:00:27;99470.66;;;24.25
43802;BMP280;29429;51.074;13.764;2022-08-19T10:02:54;99484.97;;;24.44
43802;BMP280;29429;51.074;13.764;2022-08-19T10:05:21;99490.53;;;24.39
43802;BMP280;29429;51.074;13.764;2022-08-19T10:08:09;99482.88;;;24.41
43802;BMP280;29429;51.074;13.764;2022-08-19T10:10:41;99486.22;;;24.38
43802;BMP280;29429;51.074;13.764;2022-08-19T10:13:16;99479.00;;;24.28
43802;BMP280;29429;51.074;13.764;2022-08-19T10:15:44;99474.28;;;24.34
43802;BMP280;29429;51.074;13.764;2022-08-19T10:18:16;99468.72;;;24.39
43802;BMP280;29429;51.074;13.764;2022-08-19T10:20:49;99477.13;;;24.56
43802;BMP280;29429;51.074;13.764;2022-08-19T10:23:19;99482.16;;;24.76
43802;BMP280;29429;51.074;13.764;2022-08-19T10:25:47;99486.91;;;24.98
43802;BMP280;29429;51.074;13.764;2022-08-19T10:28:14;99488.00;;;25.10
43802;BMP280;29429;51.074;13.764;2022-08-19T10:30:45;99490.53;;;25.20
43802;BMP280;29429;51.074;13.764;2022-08-19T10:33:12;99494.44;;;25.28
43802;BMP280;29429;51.074;13.764;2022-08-19T10:35:39;99502.09;;;25.39
43802;BMP280;29429;51.074;13.764;2022-08-19T10:38:23;99497.91;;;25.20
43802;BMP280;29429;51.074;13.764;2022-08-19T10:41:26;99495.66;;;25.22
43802;BMP280;29429;51.074;13.764;2022-08-19T10:44:00;99496.03;;;25.29
43802;BMP280;29429;51.074;13.764;2022-08-19T10:46:31;99499.56;;;25.43
43802;BMP280;29429;51.074;13.764;2022-08-19T10:49:01;99494.16;;;25.65
43802;BMP280;29429;51.074;13.764;2022-08-19T10:51:29;99485.63;;;25.89
43802;BMP280;29429;51.074;13.764;2022-08-19T10:54:16;99495.94;;;26.14
43802;BMP280;29429;51.074;13.764;2022-08-19T10:56:57;99493.97;;;26.37
43802;BMP280;29429;51.074;13.764;2022-08-19T10:59:27;99502.47;;;26.66
43802;BMP280;29429;51.074;13.764;2022-08-19T11:02:04;99504.78;;;26.81
43802;BMP280;29429;51.074;13.764;2022-08-19T11:04:31;99501.59;;;26.96
43802;BMP280;29429;51.074;13.764;2022-08-19T11:07:02;99508.56;;;27.11
43802;BMP280;29429;51.074;13.764;2022-08-19T11:09:29;99502.78;;;27.21
43802;BMP280;29429;51.074;13.764;2022-08-19T11:12:00;99509.88;;;27.31
43802;BMP280;29429;51.074;13.764;2022-08-19T11:14:56;99511.47;;;27.23
43802;BMP280;29429;51.074;13.764;2022-08-19T11:17:23;99509.50;;;26.98
43802;BMP280;29429;51.074;13.764;2022-08-19T11:19:50;99511.41;;;26.89
43802;BMP280;29429;51.074;13.764;2022-08-19T11:22:17;99518.16;;;26.83
43802;BMP280;29429;51.074;13.764;2022-08-19T11:24:45;99535.13;;;26.63
43802;BMP280;29429;51.074;13.764;2022-08-19T11:27:12;99529.22;;;26.38
43802;BMP280;29429;51.074;13.764;2022-08-19T11:29:39;99524.28;;;26.18
43802;BMP280;29429;51.074;13.764;2022-08-19T11:32:09;99527.06;;;26.05
43802;BMP280;29429;51.074;13.764;2022-08-19T11:34:37;99539.78;;;25.87
43802;BMP280;29429;51.074;13.764;2022-08-19T11:37:04;99542.50;;;25.87
43802;BMP280;29429;51.074;13.764;2022-08-19T11:39:33;99540.22;;;25.80
43802;BMP280;29429;51.074;13.764;2022-08-19T11:42:01;99543.66;;;25.86
43802;BMP280;29429;51.074;13.764;2022-08-19T11:44:29;99529.84;;;25.91
43802;BMP280;29429;51.074;13.764;2022-08-19T11:46:57;99524.13;;;26.01
43802;BMP280;29429;51.074;13.764;2022-08-19T11:49:34;99510.19;;;26.11
43802;BMP280;29429;51.074;13.764;2022-08-19T11:52:02;99519.97;;;26.26
43802;BMP280;29429;51.074;13.764;2022-08-19T11:54:29;99523.75;;;26.38
43802;BMP280;29429;51.074;13.764;2022-08-19T11:56:57;99529.75;;;26.49
43802;BMP280;29429;51.074;13.764;2022-08-19T11:59:24;99526.63;;;26.33
43802;BMP280;29429;51.074;13.764;2022-08-19T12:01:53;99526.63;;;26.33
43802;BMP280;29429;51.074;13.764;2022-08-19T12:04:20;99530.66;;;26.36
43802;BMP280;29429;51.074;13.764;2022-08-19T12:06:47;99539.41;;;26.24
43802;BMP280;29429;51.074;13.764;2022-08-19T12:09:14;99536.81;;;25.97
43802;BMP280;29429;51.074;13.764;2022-08-19T12:11:42;99542.47;;;25.78
43802;BMP280;29429;51.074;13.764;2022-08-19T12:14:11;99548.41;;;25.58
43802;BMP280;29429;51.074;13.764;2022-08-19T12:16:45;99547.53;;;25.35
43802;BMP280;29429;51.074;13.764;2022-08-19T12:19:19;99560.50;;;25.16
43802;BMP280;29429;51.074;13.764;2022-08-19T12:21:48;99561.00;;;25.05
43802;BMP280;29429;51.074;13.764;2022-08-19T12:24:16;99572.34;;;24.98
43802;BMP280;29429;51.074;13.764;2022-08-19T12:26:50;99566.56;;;24.86
43802;BMP280;29429;51.074;13.764;2022-08-19T12:29:20;99564.25;;;24.93
43802;BMP280;29429;51.074;13.764;2022-08-19T12:31:50;99564.06;;;25.03
43802;BMP280;29429;51.074;13.764;2022-08-19T12:34:18;99558.69;;;25.25
43802;BMP280;29429;51.074;13.764;2022-08-19T12:36:46;99567.03;;;25.42
43802;BMP280;29429;51.074;13.764;2022-08-19T12:39:15;99561.19;;;25.49
43802;BMP280;29429;51.074;13.764;2022-08-19T12:41:42;99552.16;;;25.62
43802;BMP280;29429;51.074;13.764;2022-08-19T12:44:22;99566.19;;;25.69
43802;BMP280;29429;51.074;13.764;2022-08-19T12:46:58;99569.34;;;25.63
43802;BMP280;29429;51.074;13.764;2022-08-19T12:49:28;99569.06;;;25.51
43802;BMP280;29429;51.074;13.764;2022-08-19T12:52:15;99583.25;;;25.25
43802;BMP280;29429;51.074;13.764;2022-08-19T12:54:49;99575.47;;;25.05
43802;BMP280;29429;51.074;13.764;2022-08-19T12:57:25;99570.94;;;25.14
43802;BMP280;29429;51.074;13.764;2022-08-19T13:00:04;99565.97;;;25.16
43802;BMP280;29429;51.074;13.764;2022-08-19T13:02:36;99565.34;;;25.19
43802;BMP280;29429;51.074;13.764;2022-08-19T13:05:08;99567.56;;;25.31
43802;BMP280;29429;51.074;13.764;2022-08-19T13:07:36;99561.69;;;25.37
43802;BMP280;29429;51.074;13.764;2022-08-19T13:10:08;99551.44;;;25.43
43802;BMP280;29429;51.074;13.764;2022-08-19T13:12:35;99560.75;;;25.56
43802;BMP280;29429;51.074;13.764;2022-08-19T13:15:03;99559.41;;;25.67
43802;BMP280;29429;51.074;13.764;2022-08-19T13:17:38;99549.53;;;25.43
43802;BMP280;29429;51.074;13.764;2022-08-19T13:20:07;99550.03;;;25.46
43802;BMP280;29429;51.074;13.764;2022-08-19T13:22:36;99552.88;;;25.54
43802;BMP280;29429;51.074;13.764;2022-08-19T13:25:06;99553.03;;;25.58
43802;BMP280;29429;51.074;13.764;2022-08-19T13:27:34;99562.19;;;25.53
43802;BMP280;29429;51.074;13.764;2022-08-19T13:30:02;99562.06;;;25.44
43802;BMP280;29429;51.074;13.764;2022-08-19T13:32:48;99562.41;;;25.16
43802;BMP280;29429;51.074;13.764;2022-08-19T13:35:34;99564.06;;;25.03
43802;BMP280;29429;51.074;13.764;2022-08-19T13:38:01;99557.38;;;24.82
43802;BMP280;29429;51.074;13.764;2022-08-19T13:40:32;99559.91;;;24.78
43802;BMP280;29429;51.074;13.764;2022-08-19T13:43:06;99565.91;;;24.75
43802;BMP280;29429;51.074;13.764;2022-08-19T13:45:52;99565.63;;;24.63
43802;BMP280;29429;51.074;13.764;2022-08-19T13:48:25;99565.53;;;24.68
43802;BMP280;29429;51.074;13.764;2022-08-19T13:50:53;99559.44;;;24.58
43802;BMP280;29429;51.074;13.764;2022-08-19T13:53:21;99562.88;;;24.50
43802;BMP280;29429;51.074;13.764;2022-08-19T13:55:48;99556.50;;;24.41
43802;BMP280;29429;51.074;13.764;2022-08-19T13:58:17;99558.72;;;24.39
43802;BMP280;29429;51.074;13.764;2022-08-19T14:00:46;99569.63;;;24.39
43802;BMP280;29429;51.074;13.764;2022-08-19T14:03:13;99557.28;;;24.28
43802;BMP280;29429;51.074;13.764;2022-08-19T14:05:40;99565.47;;;24.28
43802;BMP280;29429;51.074;13.764;2022-08-19T14:08:07;99561.94;;;24.27
43802;BMP280;29429;51.074;13.764;2022-08-19T14:10:35;99569.38;;;24.21
43802;BMP280;29429;51.074;13.764;2022-08-19T14:13:03;99561.38;;;24.11
43802;BMP280;29429;51.074;13.764;2022-08-19T14:15:31;99566.03;;;24.11
43802;BMP280;29429;51.074;13.764;2022-08-19T14:17:58;99561.38;;;24.11
43802;BMP280;29429;51.074;13.764;2022-08-19T14:20:25;99563.56;;;24.09
43802;BMP280;29429;51.074;13.764;2022-08-19T14:22:54;99565.75;;;24.07
43802;BMP280;29429;51.074;13.764;2022-08-19T14:25:27;99549.41;;;24.07
43802;BMP280;29429;51.074;13.764;2022-08-19T14:27:56;99567.69;;;24.07
43802;BMP280;29429;51.074;13.764;2022-08-19T14:30:32;99574.75;;;24.08
43802;BMP280;29429;51.074;13.764;2022-08-19T14:33:01;99576.75;;;24.02
43802;BMP280;29429;51.074;13.764;2022-08-19T14:35:32;99577.84;;;24.01